createdAt,value
2023-04-13T00:00:18.567Z,10.10
2023-04-13T00:05:20.742Z,9.35
2023-04-13T00:10:23.994Z,13.02
2023-04-13T00:15:26.586Z,12.55
2023-04-13T00:20:29.673Z,9.48
2023-04-13T00:25:31.815Z,14.55
2023-04-13T00:30:34.164Z,12.60
2023-04-13T00:35:39.515Z,6.23
2023-04-13T00:40:42.101Z,9.50
2023-04-13T00:45:44.308Z,8.25
2023-04-13T00:50:46.712Z,10.43
2023-04-13T00:55:49.432Z,11.45
2023-04-13T01:00:51.635Z,12.80
2023-04-13T01:06:21.289Z,12.73
2023-04-13T01:11:41.617Z,7.93
2023-04-13T01:16:49.311Z,13.63
2023-04-13T01:21:54.570Z,11.70
2023-04-13T01:27:16.692Z,17.38
2023-04-13T01:32:19.121Z,7.30
2023-04-13T01:37:22.394Z,14.73
2023-04-13T01:42:25.190Z,14.13
2023-04-13T01:47:28.890Z,9.98
2023-04-13T01:53:08.083Z,6.07
2023-04-13T01:58:15.261Z,10.45
2023-04-13T02:03:22.769Z,8.63
2023-04-13T02:08:25.548Z,15.27
2023-04-13T02:13:27.656Z,7.90
2023-04-13T02:18:30.569Z,9.88
2023-04-13T02:23:33.946Z,11.57
2023-04-13T02:28:36.206Z,8.18
2023-04-13T02:33:38.849Z,7.28
2023-04-13T02:38:42.281Z,10.90
2023-04-13T02:43:56.972Z,6.90
2023-04-13T02:49:01.548Z,12.45
2023-04-13T02:54:11.275Z,7.13
2023-04-13T02:59:16.702Z,6.78
2023-04-13T03:04:19.755Z,9.38
2023-04-13T03:09:21.875Z,6.97
2023-04-13T03:14:30.152Z,9.80
2023-04-13T03:19:38.907Z,7.35
2023-04-13T03:24:41.992Z,6.13
2023-04-13T03:29:47.256Z,9.80
2023-04-13T03:34:55.613Z,9.85
2023-04-13T03:39:59.037Z,9.77
2023-04-13T03:45:04.584Z,10.52
2023-04-13T03:50:07.741Z,9.48
2023-04-13T03:55:11.796Z,7.07
2023-04-13T04:00:15.915Z,7.97
2023-04-13T04:05:36.591Z,6.75
2023-04-13T04:10:40.030Z,8.82
2023-04-13T04:15:42.469Z,8.30
2023-04-13T04:20:44.810Z,9.43
2023-04-13T04:25:46.939Z,8.00
2023-04-13T04:30:54.295Z,7.50
2023-04-13T04:35:56.933Z,4.82
2023-04-13T04:41:05.297Z,4.95
2023-04-13T04:46:09.229Z,2.63
2023-04-13T04:51:17.609Z,4.55
2023-04-13T04:56:21.268Z,2.83
2023-04-13T05:01:27.143Z,3.58
2023-04-13T05:06:42.158Z,4.95
2023-04-13T05:11:48.304Z,3.95
2023-04-13T05:16:52.943Z,4.53
2023-04-13T05:22:02.127Z,6.88
2023-04-13T05:27:10.005Z,5.72
2023-04-13T05:32:13.201Z,4.90
2023-04-13T05:37:15.807Z,3.80
2023-04-13T05:42:19.172Z,4.78
2023-04-13T05:47:23.789Z,4.50
2023-04-13T05:52:30.685Z,2.50
2023-04-13T05:57:33.359Z,4.80
2023-04-13T06:02:41.980Z,3.67
2023-04-13T06:07:48.123Z,2.20
2023-04-13T06:12:52.503Z,3.40
2023-04-13T06:17:54.614Z,2.47
2023-04-13T06:22:56.720Z,3.13
2023-04-13T06:28:02.598Z,6.63
2023-04-13T06:33:07.497Z,4.15
2023-04-13T06:38:10.186Z,4.22
2023-04-13T06:43:29.448Z,4.47
2023-04-13T06:48:58.584Z,4.57
2023-04-13T06:54:02.638Z,5.30
2023-04-13T06:59:05.901Z,4.85
2023-04-13T07:04:08.430Z,3.85
2023-04-13T07:09:12.523Z,2.17
2023-04-13T07:14:15.562Z,5.18
2023-04-13T07:19:20.556Z,3.08
2023-04-13T07:24:22.836Z,1.17
2023-04-13T07:29:25.868Z,3.63
2023-04-13T07:34:33.428Z,2.25
2023-04-13T07:39:35.967Z,3.33
2023-04-13T07:44:39.152Z,3.15
2023-04-13T07:49:43.125Z,3.95
2023-04-13T07:54:49.500Z,5.60
2023-04-13T07:59:51.757Z,7.30
2023-04-13T08:04:54.699Z,3.55
2023-04-13T08:10:04.143Z,1.52
2023-04-13T08:15:07.674Z,1.03
2023-04-13T08:20:09.958Z,2.38
2023-04-13T08:25:12.147Z,0.82
2023-04-13T08:30:14.690Z,0.93
2023-04-13T08:35:32.555Z,1.90
2023-04-13T08:40:40.520Z,0.82
2023-04-13T08:45:48.398Z,2.72
2023-04-13T08:50:53.982Z,4.68
2023-04-13T08:55:59.304Z,1.80
2023-04-13T09:01:01.972Z,1.63
2023-04-13T09:06:09.716Z,2.88
2023-04-13T09:11:13.655Z,1.25
2023-04-13T09:16:16.615Z,1.67
2023-04-13T09:21:41.130Z,1.90
2023-04-13T09:26:44.601Z,0.38
2023-04-13T09:31:47.655Z,2.00
2023-04-13T09:36:54.722Z,2.35
2023-04-13T09:42:10.306Z,3.15
2023-04-13T09:47:12.979Z,0.63
2023-04-13T09:52:25.055Z,1.70
2023-04-13T09:57:31.396Z,0.85
2023-04-13T10:02:34.198Z,2.22
2023-04-13T10:07:38.160Z,1.30
2023-04-13T10:12:45.804Z,1.63
2023-04-13T10:17:50.705Z,1.38
2023-04-13T10:22:53.938Z,1.73
2023-04-13T10:27:57.553Z,2.80
2023-04-13T10:33:09.821Z,1.15
2023-04-13T10:38:12.127Z,3.60
2023-04-13T10:43:29.356Z,1.23
2023-04-13T10:48:31.468Z,4.63
2023-04-13T10:53:35.267Z,3.78
2023-04-13T10:58:37.405Z,3.50
2023-04-13T11:03:47.226Z,1.98
2023-04-13T11:09:06.605Z,4.85
2023-04-13T11:14:09.263Z,2.05
2023-04-13T11:19:11.491Z,2.67
2023-04-13T11:24:24.602Z,3.78
2023-04-13T11:29:27.668Z,3.88
2023-04-13T11:34:29.918Z,6.25
2023-04-13T11:39:35.205Z,5.22
2023-04-13T11:44:37.847Z,3.40
2023-04-13T11:49:47.204Z,2.65
2023-04-13T11:54:51.009Z,2.67
2023-04-13T11:59:53.532Z,2.72
2023-04-13T12:04:56.985Z,4.63
2023-04-13T12:10:03.900Z,3.40
2023-04-13T12:15:25.059Z,2.63
2023-04-13T12:20:35.897Z,2.97
2023-04-13T12:25:39.255Z,3.72
2023-04-13T12:30:41.642Z,4.72
2023-04-13T12:35:44.060Z,1.98
2023-04-13T12:40:46.311Z,4.32
2023-04-13T12:45:49.513Z,4.70
2023-04-13T12:50:51.741Z,6.15
2023-04-13T12:55:53.769Z,3.40
2023-04-13T13:00:56.295Z,7.38
2023-04-13T13:05:58.430Z,5.93
2023-04-13T13:11:01.320Z,4.60
2023-04-13T13:16:03.668Z,5.65
2023-04-13T13:21:06.050Z,6.45
2023-04-13T13:26:23.068Z,3.33
2023-04-13T13:31:27.640Z,6.10
2023-04-13T13:36:31.272Z,5.78
2023-04-13T13:41:33.418Z,5.97
2023-04-13T13:46:36.669Z,4.05
2023-04-13T13:51:40.713Z,8.63
2023-04-13T13:56:45.668Z,5.83
2023-04-13T14:01:47.765Z,5.57
2023-04-13T14:06:49.978Z,5.93
2023-04-13T14:11:52.168Z,4.25
2023-04-13T14:16:54.282Z,5.32
2023-04-13T14:21:56.817Z,7.53
2023-04-13T14:26:58.964Z,6.80
2023-04-13T14:32:01.178Z,4.97
2023-04-13T14:37:03.323Z,5.18
2023-04-13T14:42:05.949Z,7.18
2023-04-13T14:47:09.725Z,9.18
2023-04-13T14:52:12.464Z,12.18
2023-04-13T14:57:15.022Z,9.98
2023-04-13T15:02:17.183Z,9.45
2023-04-13T15:07:21.698Z,7.57
2023-04-13T15:12:23.856Z,5.00
2023-04-13T15:17:26.557Z,6.50
2023-04-13T15:22:30.205Z,6.10
2023-04-13T15:27:32.432Z,9.85
2023-04-13T15:32:34.817Z,6.93
2023-04-13T15:37:36.953Z,6.75
2023-04-13T15:42:39.149Z,7.80
2023-04-13T15:47:42.136Z,6.18
2023-04-13T15:52:44.341Z,6.57
2023-04-13T15:57:46.566Z,5.82
2023-04-13T16:02:48.850Z,6.53
2023-04-13T16:07:51.538Z,3.47
2023-04-13T16:12:54.994Z,7.45
2023-04-13T16:17:57.259Z,3.63
2023-04-13T16:23:02.422Z,6.20
2023-04-13T16:28:04.482Z,3.87
2023-04-13T16:33:06.696Z,7.32
2023-04-13T16:38:08.798Z,7.22
2023-04-13T16:43:10.954Z,2.33
2023-04-13T16:48:13.077Z,8.90
2023-04-13T16:53:16.467Z,5.35
2023-04-13T16:58:21.335Z,3.65
2023-04-13T17:03:23.566Z,6.85
2023-04-13T17:08:25.822Z,5.80
2023-04-13T17:13:28.266Z,10.52
2023-04-13T17:18:30.485Z,5.97
2023-04-13T17:23:32.543Z,4.93
2023-04-13T17:28:34.617Z,6.35
2023-04-13T17:33:36.840Z,10.13
2023-04-13T17:38:38.897Z,9.23
2023-04-13T17:43:41.324Z,4.72
2023-04-13T17:48:43.382Z,5.63
2023-04-13T17:53:45.705Z,6.93
2023-04-13T17:58:47.787Z,4.90
2023-04-13T18:03:50.030Z,5.38
2023-04-13T18:08:52.144Z,5.03
2023-04-13T18:13:54.236Z,2.25
2023-04-13T18:18:56.271Z,5.18
2023-04-13T18:24:01.695Z,5.82
2023-04-13T18:29:04.334Z,5.65
2023-04-13T18:34:10.396Z,3.55
2023-04-13T18:39:12.512Z,8.38
2023-04-13T18:44:14.548Z,8.38
2023-04-13T18:49:16.838Z,4.97
2023-04-13T18:54:19.020Z,4.70
2023-04-13T18:59:21.114Z,4.40
2023-04-13T19:04:23.311Z,5.18
2023-04-13T19:09:25.533Z,5.63
2023-04-13T19:14:27.923Z,9.43
2023-04-13T19:19:30.041Z,7.25
2023-04-13T19:24:32.173Z,8.40
2023-04-13T19:29:34.823Z,6.30
2023-04-13T19:34:37.053Z,9.90
2023-04-13T19:39:39.230Z,6.28
2023-04-13T19:44:41.434Z,8.57
2023-04-13T19:49:43.745Z,5.30
2023-04-13T19:54:46.682Z,6.80
2023-04-13T19:59:48.889Z,12.55
2023-04-13T20:04:51.061Z,9.77
2023-04-13T20:09:53.137Z,9.00
2023-04-13T20:14:55.304Z,5.63
2023-04-13T20:19:57.412Z,3.92
2023-04-13T20:24:59.445Z,6.05
2023-04-13T20:30:01.744Z,4.97
2023-04-13T20:35:06.162Z,8.18
2023-04-13T20:40:11.433Z,7.20
2023-04-13T20:45:15.018Z,11.55
2023-04-13T20:50:21.872Z,8.85
2023-04-13T20:55:24.460Z,12.07
2023-04-13T21:00:27.473Z,12.75
2023-04-13T21:05:29.926Z,11.07
2023-04-13T21:10:32.103Z,7.25
2023-04-13T21:15:34.158Z,8.30
2023-04-13T21:20:36.553Z,7.32
2023-04-13T21:25:38.689Z,9.98
2023-04-13T21:30:40.826Z,6.55
2023-04-13T21:35:42.944Z,6.78
2023-04-13T21:40:44.975Z,16.30
2023-04-13T21:45:47.077Z,17.02
2023-04-13T21:50:51.989Z,28.42
2023-04-13T21:55:54.071Z,22.13
2023-04-13T22:00:56.499Z,13.95
2023-04-13T22:05:58.576Z,16.02
2023-04-13T22:11:01.525Z,21.05
2023-04-13T22:16:03.736Z,10.70
2023-04-13T22:21:07.065Z,18.08
2023-04-13T22:26:09.193Z,19.48
2023-04-13T22:31:14.657Z,17.40
2023-04-13T22:36:21.233Z,16.35
2023-04-13T22:41:23.592Z,18.27
2023-04-13T22:46:25.935Z,14.23
2023-04-13T22:51:29.924Z,16.63
2023-04-13T22:56:33.852Z,13.82
2023-04-13T23:01:36.014Z,9.95
2023-04-13T23:06:38.060Z,8.93
2023-04-13T23:11:40.154Z,11.93
2023-04-13T23:16:42.296Z,10.43
2023-04-13T23:21:44.856Z,10.73
2023-04-13T23:26:46.912Z,7.28
2023-04-13T23:31:49.008Z,10.40
2023-04-13T23:36:51.137Z,7.30
2023-04-13T23:41:53.288Z,7.53
2023-04-13T23:46:56.103Z,7.68
2023-04-13T23:51:58.133Z,7.57
2023-04-13T23:57:00.200Z,7.72
